createdAt,value
2022-11-11T00:02:27.855Z,8.80
2022-11-11T00:05:13.476Z,7.00
2022-11-11T00:08:02.254Z,8.40
2022-11-11T00:10:47.631Z,9.30
2022-11-11T00:13:34.231Z,9.40
2022-11-11T00:16:20.800Z,9.90
2022-11-11T00:19:24.990Z,8.60
2022-11-11T00:22:38.603Z,7.40
2022-11-11T00:25:24.057Z,9.00
2022-11-11T00:28:09.856Z,9.40
2022-11-11T00:31:02.618Z,9.60
2022-11-11T00:33:48.542Z,7.80
2022-11-11T00:36:34.307Z,8.80
2022-11-11T00:39:20.218Z,10.40
2022-11-11T00:42:05.895Z,9.90
2022-11-11T00:44:51.479Z,9.70
2022-11-11T00:47:56.120Z,7.70
2022-11-11T00:51:00.439Z,8.40
2022-11-11T00:53:46.329Z,9.80
2022-11-11T00:56:32.378Z,11.40
2022-11-11T00:59:18.283Z,12.40
2022-11-11T01:02:04.043Z,10.80
2022-11-11T01:04:50.158Z,10.90
2022-11-11T01:07:36.017Z,11.00
2022-11-11T01:10:42.388Z,12.00
2022-11-11T01:13:32.649Z,13.10
2022-11-11T01:16:21.458Z,9.60
2022-11-11T01:19:07.116Z,10.80
2022-11-11T01:21:52.826Z,11.20
2022-11-11T01:24:39.106Z,12.60
2022-11-11T01:27:24.799Z,14.50
2022-11-11T01:30:14.286Z,10.50
2022-11-11T01:33:00.797Z,11.60
2022-11-11T01:35:46.567Z,11.50
2022-11-11T01:38:32.468Z,13.10
2022-11-11T01:41:36.876Z,11.10
2022-11-11T01:44:55.614Z,12.40
2022-11-11T01:48:22.954Z,13.30
2022-11-11T01:51:06.334Z,12.60
2022-11-11T01:53:56.147Z,12.00
2022-11-11T01:56:42.790Z,12.00
2022-11-11T01:59:29.116Z,12.40
2022-11-11T02:02:23.861Z,12.30
2022-11-11T02:05:31.409Z,13.70
2022-11-11T02:08:32.729Z,13.10
2022-11-11T02:11:39.109Z,12.50
2022-11-11T02:14:37.270Z,12.50
2022-11-11T02:17:23.965Z,10.70
2022-11-11T02:20:10.627Z,12.80
2022-11-11T02:23:23.492Z,12.20
2022-11-11T02:26:09.768Z,12.40
2022-11-11T02:28:55.706Z,11.40
2022-11-11T02:31:41.514Z,10.70
2022-11-11T02:34:31.775Z,13.10
2022-11-11T02:37:21.061Z,12.00
2022-11-11T02:40:09.197Z,11.80
2022-11-11T02:42:54.889Z,14.10
2022-11-11T02:45:40.413Z,12.80
2022-11-11T02:48:26.211Z,11.10
2022-11-11T02:51:12.080Z,12.90
2022-11-11T02:53:59.230Z,12.80
2022-11-11T02:57:04.024Z,13.10
2022-11-11T02:59:49.747Z,10.60
2022-11-11T03:02:36.022Z,11.40
2022-11-11T03:05:21.661Z,13.50
2022-11-11T03:08:07.630Z,12.30
2022-11-11T03:10:53.606Z,14.00
2022-11-11T03:13:39.390Z,11.60
2022-11-11T03:16:44.053Z,11.20
2022-11-11T03:19:30.195Z,12.70
2022-11-11T03:25:40.394Z,11.70
2022-11-11T03:28:26.264Z,11.10
2022-11-11T03:31:11.941Z,13.40
2022-11-11T03:34:17.572Z,11.50
2022-11-11T03:37:25.988Z,14.00
2022-11-11T03:40:12.487Z,10.40
2022-11-11T03:43:03.908Z,11.70
2022-11-11T03:45:51.633Z,13.30
2022-11-11T03:48:37.432Z,14.70
2022-11-11T03:51:22.910Z,12.40
2022-11-11T03:54:08.398Z,12.10
2022-11-11T03:57:14.245Z,11.90
2022-11-11T03:59:59.943Z,13.00
2022-11-11T04:03:04.559Z,13.60
2022-11-11T04:06:09.154Z,9.60
2022-11-11T04:09:13.546Z,12.30
2022-11-11T04:11:59.215Z,11.10
2022-11-11T04:15:03.617Z,14.60
2022-11-11T04:17:49.316Z,12.90
2022-11-11T04:20:53.825Z,13.30
2022-11-11T04:23:39.647Z,12.30
2022-11-11T04:26:25.320Z,13.60
2022-11-11T04:29:29.603Z,12.00
2022-11-11T04:35:21.050Z,11.00
2022-11-11T04:38:27.023Z,12.00
2022-11-11T04:41:13.309Z,13.40
2022-11-11T04:44:17.533Z,9.80
2022-11-11T04:47:03.147Z,10.80
2022-11-11T04:49:48.696Z,13.00
2022-11-11T04:52:34.321Z,11.30
2022-11-11T04:55:38.797Z,11.80
2022-11-11T04:58:25.796Z,10.20
2022-11-11T05:01:11.152Z,11.20
2022-11-11T05:03:57.082Z,11.70
2022-11-11T05:07:01.672Z,12.70
2022-11-11T05:09:47.097Z,9.20
2022-11-11T05:12:32.684Z,10.50
2022-11-11T05:15:37.302Z,10.00
2022-11-11T05:18:41.715Z,11.30
2022-11-11T05:21:28.686Z,11.60
2022-11-11T05:24:33.163Z,8.70
2022-11-11T05:30:05.826Z,9.50
2022-11-11T05:32:51.340Z,10.00
2022-11-11T05:35:37.042Z,10.30
2022-11-11T05:38:22.817Z,10.00
2022-11-11T05:41:08.752Z,9.40
2022-11-11T05:43:54.614Z,9.50
2022-11-11T05:46:40.122Z,10.60
2022-11-11T05:49:26.158Z,12.80
2022-11-11T05:52:12.661Z,9.40
2022-11-11T05:54:58.552Z,11.20
2022-11-11T05:57:44.870Z,10.60
2022-11-11T06:00:30.773Z,9.80
2022-11-11T06:03:16.727Z,12.10
2022-11-11T06:06:02.521Z,9.10
2022-11-11T06:08:48.199Z,10.60
2022-11-11T06:11:33.993Z,10.10
2022-11-11T06:14:19.591Z,11.40
2022-11-11T06:17:05.208Z,11.60
2022-11-11T06:19:50.834Z,9.60
2022-11-11T06:22:55.361Z,9.60
2022-11-11T06:25:59.990Z,10.40
2022-11-11T06:28:53.403Z,8.20
2022-11-11T06:31:39.242Z,9.60
2022-11-11T06:34:24.822Z,10.30
2022-11-11T06:37:10.607Z,9.30
2022-11-11T06:39:56.145Z,9.20
2022-11-11T06:42:41.723Z,11.00
2022-11-11T06:45:29.091Z,9.70
2022-11-11T06:48:14.807Z,8.80
2022-11-11T06:51:05.339Z,9.50
2022-11-11T06:53:51.693Z,10.30
2022-11-11T06:56:37.320Z,9.30
2022-11-11T06:59:23.146Z,10.00
2022-11-11T07:02:14.983Z,8.90
2022-11-11T07:05:00.893Z,8.70
2022-11-11T07:07:46.466Z,8.80
2022-11-11T07:10:32.781Z,9.90
2022-11-11T07:13:18.844Z,9.40
2022-11-11T07:16:04.629Z,7.70
2022-11-11T07:18:50.517Z,7.50
2022-11-11T07:21:36.204Z,7.60
2022-11-11T07:24:21.904Z,9.20
2022-11-11T07:27:07.572Z,8.90
2022-11-11T07:29:53.272Z,8.90
2022-11-11T07:32:46.363Z,8.30
2022-11-11T07:35:32.134Z,9.00
2022-11-11T07:38:17.919Z,7.90
2022-11-11T07:41:03.614Z,7.70
2022-11-11T07:43:49.160Z,7.70
2022-11-11T07:46:34.728Z,6.50
2022-11-11T07:49:20.409Z,6.70
2022-11-11T07:52:06.097Z,7.70
2022-11-11T07:54:51.678Z,8.30
2022-11-11T07:57:37.335Z,7.30
2022-11-11T08:00:23.458Z,6.50
2022-11-11T08:03:09.659Z,7.00
2022-11-11T08:05:56.569Z,8.80
2022-11-11T08:08:41.982Z,6.60
2022-11-11T08:11:46.671Z,7.20
2022-11-11T08:14:32.572Z,7.60
2022-11-11T08:17:18.147Z,7.50
2022-11-11T08:20:04.249Z,8.00
2022-11-11T08:23:16.973Z,5.50
2022-11-11T08:26:06.268Z,6.50
2022-11-11T08:28:52.726Z,5.00
2022-11-11T08:31:39.447Z,7.40
2022-11-11T08:34:25.294Z,5.60
2022-11-11T08:37:10.962Z,6.40
2022-11-11T08:39:57.513Z,5.20
2022-11-11T08:42:43.144Z,6.60
2022-11-11T08:45:29.300Z,5.30
2022-11-11T08:48:14.788Z,4.50
2022-11-11T08:51:00.463Z,5.30
2022-11-11T08:53:46.137Z,4.30
2022-11-11T08:56:31.931Z,3.40
2022-11-11T08:59:17.605Z,4.20
2022-11-11T09:02:03.190Z,4.40
2022-11-11T09:04:53.025Z,3.80
2022-11-11T09:07:41.522Z,3.70
2022-11-11T09:10:27.131Z,3.40
2022-11-11T09:13:12.731Z,3.60
2022-11-11T09:15:59.911Z,4.00
2022-11-11T09:18:46.715Z,3.40
2022-11-11T09:21:32.605Z,3.00
2022-11-11T09:24:18.401Z,3.40
2022-11-11T09:27:04.081Z,3.00
2022-11-11T09:29:49.525Z,3.20
2022-11-11T09:32:35.580Z,2.80
2022-11-11T09:35:21.595Z,3.00
2022-11-11T09:38:07.062Z,2.80
2022-11-11T09:41:12.795Z,2.50
2022-11-11T09:44:00.505Z,2.50
2022-11-11T09:46:55.199Z,3.40
2022-11-11T09:49:44.114Z,3.50
2022-11-11T09:52:39.266Z,2.40
2022-11-11T09:55:32.196Z,2.60
2022-11-11T09:58:21.335Z,2.20
2022-11-11T10:01:11.294Z,2.80
2022-11-11T10:04:05.303Z,2.60
2022-11-11T10:06:52.454Z,2.90
2022-11-11T10:09:48.016Z,2.60
2022-11-11T10:12:43.532Z,2.40
2022-11-11T10:15:47.303Z,2.40
2022-11-11T10:18:48.552Z,2.80
2022-11-11T10:22:11.876Z,2.40
2022-11-11T10:25:17.063Z,1.90
2022-11-11T10:28:02.643Z,2.70
2022-11-11T10:30:49.048Z,2.20
2022-11-11T10:33:57.691Z,2.40
2022-11-11T10:36:54.589Z,2.00
2022-11-11T10:40:11.435Z,2.00
2022-11-11T10:42:57.322Z,1.70
2022-11-11T10:45:50.335Z,1.50
2022-11-11T10:48:47.597Z,1.50
2022-11-11T10:51:37.500Z,1.50
2022-11-11T10:54:26.848Z,1.90
2022-11-11T10:57:22.912Z,1.90
2022-11-11T11:00:10.497Z,2.40
2022-11-11T11:03:02.479Z,1.70
2022-11-11T11:06:04.051Z,2.10
2022-11-11T11:08:54.760Z,2.50
2022-11-11T11:11:43.198Z,2.20
2022-11-11T11:14:37.826Z,2.20
2022-11-11T11:17:30.703Z,2.50
2022-11-11T11:20:20.200Z,1.40
2022-11-11T11:23:05.576Z,1.40
2022-11-11T11:25:57.009Z,1.50
2022-11-11T11:28:59.583Z,2.50
2022-11-11T11:31:47.688Z,2.60
2022-11-11T11:34:46.721Z,2.90
2022-11-11T11:37:32.193Z,3.40
2022-11-11T11:40:17.700Z,3.20
2022-11-11T11:43:03.441Z,3.70
2022-11-11T11:45:55.520Z,2.60
2022-11-11T11:48:44.335Z,2.90
2022-11-11T11:51:36.193Z,2.30
2022-11-11T11:54:35.940Z,3.20
2022-11-11T11:57:33.447Z,2.70
2022-11-11T12:00:21.024Z,2.60
2022-11-11T12:03:17.389Z,2.50
2022-11-11T12:06:17.636Z,3.00
2022-11-11T12:09:09.245Z,2.20
2022-11-11T12:12:03.088Z,3.50
2022-11-11T12:18:22.271Z,2.80
2022-11-11T12:21:19.015Z,2.70
2022-11-11T12:24:23.105Z,1.90
2022-11-11T12:27:36.255Z,2.00
2022-11-11T12:30:28.592Z,2.20
2022-11-11T12:33:20.144Z,2.50
2022-11-11T12:36:11.052Z,2.50
2022-11-11T12:39:02.797Z,2.70
2022-11-11T12:41:57.464Z,2.60
2022-11-11T12:45:09.268Z,2.50
2022-11-11T12:48:03.899Z,3.00
2022-11-11T12:51:12.102Z,3.40
2022-11-11T12:54:24.711Z,2.70
2022-11-11T12:57:16.060Z,2.40
2022-11-11T13:00:13.739Z,2.60
2022-11-11T13:03:10.438Z,3.10
2022-11-11T13:05:55.989Z,2.70
2022-11-11T13:09:09.337Z,2.80
2022-11-11T13:12:03.757Z,2.80
2022-11-11T13:14:57.088Z,2.20
2022-11-11T13:17:42.050Z,3.10
2022-11-11T13:20:36.606Z,3.30
2022-11-11T13:23:25.576Z,4.40
2022-11-11T13:26:34.269Z,3.70
2022-11-11T13:31:39.971Z,4.00
2022-11-11T13:34:25.881Z,3.40
2022-11-11T13:37:28.314Z,2.40
2022-11-11T13:40:38.074Z,3.30
2022-11-11T13:43:35.894Z,3.10
2022-11-11T13:46:44.495Z,2.90
2022-11-11T13:49:35.438Z,3.60
2022-11-11T13:52:28.162Z,3.50
2022-11-11T13:55:44.181Z,2.80
2022-11-11T13:58:35.167Z,2.40
2022-11-11T14:01:21.018Z,2.70
2022-11-11T14:04:08.309Z,3.20
2022-11-11T14:06:54.229Z,3.00
2022-11-11T14:09:57.493Z,2.80
2022-11-11T14:12:46.931Z,3.10
2022-11-11T14:15:37.091Z,3.50
2022-11-11T14:18:26.037Z,2.40
2022-11-11T14:21:11.693Z,2.20
2022-11-11T14:23:57.276Z,2.90
2022-11-11T14:26:43.081Z,2.70
2022-11-11T14:29:35.207Z,2.80
2022-11-11T14:32:45.539Z,2.90
2022-11-11T14:35:48.246Z,2.60
2022-11-11T14:38:43.139Z,3.00
2022-11-11T14:41:41.216Z,1.90
2022-11-11T14:44:26.835Z,2.10
2022-11-11T14:47:12.586Z,3.10
2022-11-11T14:49:59.857Z,3.30
2022-11-11T14:52:45.897Z,2.90
2022-11-11T14:55:33.917Z,3.30
2022-11-11T14:58:21.547Z,3.40
2022-11-11T15:01:07.418Z,2.70
2022-11-11T15:03:53.867Z,2.20
2022-11-11T15:06:44.291Z,2.90
2022-11-11T15:10:00.883Z,2.70
2022-11-11T15:13:05.697Z,2.90
2022-11-11T15:15:54.499Z,2.90
2022-11-11T15:19:03.171Z,2.60
2022-11-11T15:22:04.758Z,2.60
2022-11-11T15:25:11.412Z,3.30
2022-11-11T15:28:02.250Z,2.50
2022-11-11T15:31:28.221Z,2.60
2022-11-11T15:34:32.669Z,3.50
2022-11-11T15:37:19.404Z,4.60
2022-11-11T15:40:07.791Z,4.50
2022-11-11T15:42:53.299Z,4.70
2022-11-11T15:45:38.986Z,4.10
2022-11-11T15:48:27.757Z,5.10
2022-11-11T15:51:22.734Z,3.30
2022-11-11T15:54:10.430Z,4.00
2022-11-11T15:56:56.090Z,5.10
2022-11-11T15:59:42.067Z,5.60
2022-11-11T16:02:34.887Z,4.80
2022-11-11T16:05:24.892Z,4.80
2022-11-11T16:08:18.022Z,5.10
2022-11-11T16:11:03.937Z,5.80
2022-11-11T16:13:56.606Z,3.50
2022-11-11T16:16:43.836Z,4.50
2022-11-11T16:19:35.637Z,5.20
2022-11-11T16:22:26.338Z,6.10
2022-11-11T16:25:20.917Z,5.70
2022-11-11T16:28:06.411Z,5.50
2022-11-11T16:30:52.241Z,5.60
2022-11-11T16:33:37.875Z,5.50
2022-11-11T16:36:23.569Z,3.30
2022-11-11T16:39:22.084Z,3.70
2022-11-11T16:42:25.048Z,4.60
2022-11-11T16:45:21.573Z,5.00
2022-11-11T16:48:31.526Z,4.50
2022-11-11T16:51:18.948Z,4.40
2022-11-11T16:54:10.356Z,4.20
2022-11-11T16:56:57.484Z,6.40
2022-11-11T16:59:45.483Z,5.10
2022-11-11T17:02:31.309Z,5.00
2022-11-11T17:05:17.099Z,3.90
2022-11-11T17:08:28.080Z,4.90
2022-11-11T17:11:36.084Z,4.10
2022-11-11T17:14:21.987Z,2.10
2022-11-11T17:17:11.472Z,3.30
2022-11-11T17:19:57.920Z,3.40
2022-11-11T17:22:55.585Z,3.60
2022-11-11T17:25:41.305Z,3.30
2022-11-11T17:28:30.376Z,4.80
2022-11-11T17:31:16.666Z,3.70
2022-11-11T17:34:20.653Z,3.60
2022-11-11T17:37:06.221Z,2.70
2022-11-11T17:39:52.247Z,2.90
2022-11-11T17:42:38.035Z,3.80
2022-11-11T17:45:23.816Z,3.80
2022-11-11T17:48:10.365Z,3.90
2022-11-11T17:50:56.035Z,3.80
2022-11-11T17:53:41.695Z,3.60
2022-11-11T17:56:27.278Z,3.50
2022-11-11T17:59:12.956Z,3.60
2022-11-11T18:01:59.659Z,4.40
2022-11-11T18:04:45.360Z,4.30
2022-11-11T18:07:31.069Z,16.40
2022-11-11T18:10:16.865Z,6.70
2022-11-11T18:13:02.403Z,6.00
2022-11-11T18:15:48.290Z,4.90
2022-11-11T18:18:34.382Z,5.90
2022-11-11T18:21:21.647Z,6.20
2022-11-11T18:24:08.793Z,5.50
2022-11-11T18:26:57.068Z,5.60
2022-11-11T18:29:44.717Z,22.50
2022-11-11T18:32:30.798Z,9.50
2022-11-11T18:35:18.933Z,17.40
2022-11-11T18:38:04.615Z,11.40
2022-11-11T18:40:50.212Z,11.10
2022-11-11T18:43:44.795Z,7.20
2022-11-11T18:46:30.916Z,5.90
2022-11-11T18:49:16.535Z,5.10
2022-11-11T18:52:02.357Z,6.20
2022-11-11T18:54:47.937Z,5.60
2022-11-11T18:57:33.534Z,7.00
2022-11-11T19:00:20.342Z,6.40
2022-11-11T19:03:06.002Z,6.60
2022-11-11T19:05:51.695Z,5.40
2022-11-11T19:08:37.897Z,5.90
2022-11-11T19:11:23.685Z,9.00
2022-11-11T19:14:10.080Z,8.60
2022-11-11T19:16:55.914Z,9.40
2022-11-11T19:19:41.660Z,10.00
2022-11-11T19:22:27.541Z,10.90
2022-11-11T19:25:13.326Z,9.50
2022-11-11T19:27:59.256Z,15.60
2022-11-11T19:30:44.725Z,13.20
2022-11-11T19:33:33.251Z,17.20
